createdAt,value
2018-12-14T00:00:46.442Z,17.52
2018-12-14T00:01:46.655Z,17.53
2018-12-14T00:02:46.388Z,17.52
2018-12-14T00:03:46.591Z,17.52
2018-12-14T00:04:46.630Z,17.5
2018-12-14T00:05:46.602Z,17.52
2018-12-14T00:06:46.753Z,17.52
2018-12-14T00:07:46.601Z,17.55
2018-12-14T00:08:46.567Z,17.53
2018-12-14T00:09:46.470Z,17.54
2018-12-14T00:10:46.572Z,17.53
2018-12-14T00:11:46.851Z,17.52
2018-12-14T00:12:47.424Z,17.51
2018-12-14T00:13:46.723Z,17.52
2018-12-14T00:14:46.899Z,17.52
2018-12-14T00:15:46.577Z,17.5
2018-12-14T00:16:46.840Z,17.5
2018-12-14T00:17:46.676Z,17.51
2018-12-14T00:18:46.524Z,17.5
2018-12-14T00:19:46.624Z,17.51
2018-12-14T00:20:46.809Z,17.49
2018-12-14T00:21:46.819Z,17.5
2018-12-14T00:22:46.896Z,17.53
2018-12-14T00:23:46.439Z,17.52
2018-12-14T00:24:46.596Z,17.52
2018-12-14T00:25:46.446Z,17.52
2018-12-14T00:26:46.560Z,17.49
2018-12-14T00:27:46.501Z,17.51
2018-12-14T00:28:46.837Z,17.5
2018-12-14T00:29:46.824Z,17.53
2018-12-14T00:30:46.490Z,17.52
2018-12-14T00:31:46.627Z,17.49
2018-12-14T00:32:46.794Z,17.48
2018-12-14T00:33:46.588Z,17.49
2018-12-14T00:34:46.901Z,17.48
2018-12-14T00:35:46.593Z,17.48
2018-12-14T00:36:46.408Z,17.51
2018-12-14T00:37:46.516Z,17.49
2018-12-14T00:38:46.887Z,17.48
2018-12-14T00:39:46.729Z,17.49
2018-12-14T00:40:46.662Z,17.51
2018-12-14T00:41:51.706Z,17.49
2018-12-14T00:42:46.448Z,17.48
2018-12-14T00:43:46.940Z,17.5
2018-12-14T00:44:47.068Z,17.49
2018-12-14T00:45:46.650Z,17.48
2018-12-14T00:46:46.422Z,17.49
2018-12-14T00:47:46.540Z,17.48
2018-12-14T00:48:46.602Z,17.5
2018-12-14T00:49:46.530Z,17.48
2018-12-14T00:50:47.075Z,17.47
2018-12-14T00:51:46.768Z,17.46
2018-12-14T00:52:46.655Z,17.47
2018-12-14T00:53:46.479Z,17.47
2018-12-14T00:54:46.381Z,17.47
2018-12-14T00:55:46.697Z,17.48
2018-12-14T00:56:46.752Z,17.47
2018-12-14T00:57:47.151Z,17.48
2018-12-14T00:58:46.828Z,17.47
2018-12-14T00:59:46.988Z,17.48
2018-12-14T01:00:46.482Z,17.47
2018-12-14T01:01:46.505Z,17.48
2018-12-14T01:02:46.725Z,17.48
2018-12-14T01:03:46.600Z,17.48
2018-12-14T01:04:46.600Z,17.47
2018-12-14T01:05:46.498Z,17.48
2018-12-14T01:06:47.430Z,17.48
2018-12-14T01:07:46.587Z,17.46
2018-12-14T01:08:46.727Z,17.48
2018-12-14T01:09:46.582Z,17.5
2018-12-14T01:10:46.607Z,17.48
2018-12-14T01:11:46.927Z,17.46
2018-12-14T01:12:46.625Z,17.46
2018-12-14T01:13:47.044Z,17.47
2018-12-14T01:14:47.502Z,17.46
2018-12-14T01:15:46.413Z,17.44
2018-12-14T01:16:46.638Z,17.44
2018-12-14T01:17:46.663Z,17.44
2018-12-14T01:18:46.602Z,17.45
2018-12-14T01:19:46.354Z,17.45
2018-12-14T01:20:46.918Z,17.45
2018-12-14T01:21:46.453Z,17.43
2018-12-14T01:22:47.804Z,17.44
2018-12-14T01:23:46.546Z,17.43
2018-12-14T01:24:47.308Z,17.44
2018-12-14T01:25:46.810Z,17.44
2018-12-14T01:26:46.938Z,17.43
2018-12-14T01:27:46.459Z,17.43
2018-12-14T01:28:46.609Z,17.44
2018-12-14T01:29:46.717Z,17.43
2018-12-14T01:30:46.361Z,17.43
2018-12-14T01:31:46.507Z,17.42
2018-12-14T01:32:46.478Z,17.41
2018-12-14T01:33:46.678Z,17.4
2018-12-14T01:34:46.427Z,17.41
2018-12-14T01:35:46.683Z,17.42
2018-12-14T01:36:46.819Z,17.41
2018-12-14T01:37:46.714Z,17.4
2018-12-14T01:38:46.616Z,17.4
2018-12-14T01:39:46.831Z,17.41
2018-12-14T01:40:46.674Z,17.42
2018-12-14T01:41:46.663Z,17.39
2018-12-14T01:42:46.626Z,17.38
2018-12-14T01:43:46.853Z,17.38
2018-12-14T01:44:46.974Z,17.39
2018-12-14T01:45:46.570Z,17.39
2018-12-14T01:46:46.607Z,17.37
2018-12-14T01:47:46.807Z,17.37
2018-12-14T01:48:46.463Z,17.36
2018-12-14T01:49:46.991Z,17.38
2018-12-14T01:50:46.442Z,17.39
2018-12-14T01:51:46.705Z,17.37
2018-12-14T01:52:46.407Z,17.38
2018-12-14T01:53:46.804Z,17.39
2018-12-14T01:54:46.598Z,17.38
2018-12-14T01:55:46.837Z,17.4
2018-12-14T01:56:46.543Z,17.38
2018-12-14T01:57:47.237Z,17.36
2018-12-14T01:58:46.594Z,17.36
2018-12-14T01:59:46.615Z,17.36
2018-12-14T02:00:46.775Z,17.35
2018-12-14T02:01:46.903Z,17.36
2018-12-14T02:02:46.906Z,17.36
2018-12-14T02:03:46.791Z,17.37
2018-12-14T02:04:46.783Z,17.39
2018-12-14T02:05:46.802Z,17.35
2018-12-14T02:06:46.633Z,17.36
2018-12-14T02:07:46.805Z,17.35
2018-12-14T02:08:47.477Z,17.36
2018-12-14T02:09:46.420Z,17.34
2018-12-14T02:10:46.581Z,17.37
2018-12-14T02:11:46.388Z,17.35
2018-12-14T02:12:46.602Z,17.36
2018-12-14T02:13:46.766Z,17.37
2018-12-14T02:14:46.472Z,17.36
2018-12-14T02:15:46.380Z,17.35
2018-12-14T02:16:46.876Z,17.35
2018-12-14T02:17:46.616Z,17.35
2018-12-14T02:18:46.683Z,17.35
2018-12-14T02:19:46.909Z,17.36
2018-12-14T02:20:46.839Z,17.35
2018-12-14T02:21:46.773Z,17.33
2018-12-14T02:22:46.820Z,17.33
2018-12-14T02:23:46.473Z,17.32
2018-12-14T02:24:46.408Z,17.32
2018-12-14T02:25:46.402Z,17.33
2018-12-14T02:26:46.579Z,17.33
2018-12-14T02:27:46.654Z,17.32
2018-12-14T02:28:46.676Z,17.3
2018-12-14T02:29:46.671Z,17.3
2018-12-14T02:30:46.758Z,17.28
2018-12-14T02:31:46.781Z,17.31
2018-12-14T02:32:46.858Z,17.31
2018-12-14T02:33:46.320Z,17.32
2018-12-14T02:34:46.593Z,17.32
2018-12-14T02:35:46.737Z,17.3
2018-12-14T02:36:46.916Z,17.29
2018-12-14T02:37:46.440Z,17.3
2018-12-14T02:38:46.763Z,17.29
2018-12-14T02:39:46.682Z,17.28
2018-12-14T02:40:46.918Z,17.29
2018-12-14T02:41:46.443Z,17.3
2018-12-14T02:42:46.569Z,17.3
2018-12-14T02:43:46.792Z,17.3
2018-12-14T02:44:46.914Z,17.3
2018-12-14T02:45:46.667Z,17.29
2018-12-14T02:46:46.413Z,17.29
2018-12-14T02:47:46.941Z,17.28
2018-12-14T02:48:46.734Z,17.27
2018-12-14T02:49:46.494Z,17.29
2018-12-14T02:50:46.440Z,17.28
2018-12-14T02:51:46.297Z,17.29
2018-12-14T02:52:47.457Z,17.28
2018-12-14T02:53:46.599Z,17.27
2018-12-14T02:54:46.956Z,17.28
2018-12-14T02:55:46.543Z,17.28
2018-12-14T02:56:46.549Z,17.27
2018-12-14T02:57:46.338Z,17.27
2018-12-14T02:58:46.455Z,17.25
2018-12-14T02:59:46.704Z,17.27
2018-12-14T03:00:46.680Z,17.26
2018-12-14T03:01:46.613Z,17.26
2018-12-14T03:02:47.011Z,17.26
2018-12-14T03:03:46.878Z,17.24
2018-12-14T03:04:46.276Z,17.24
2018-12-14T03:05:46.637Z,17.23
2018-12-14T03:06:46.610Z,17.24
2018-12-14T03:07:46.443Z,17.23
2018-12-14T03:08:46.604Z,17.24
2018-12-14T03:09:46.427Z,17.24
2018-12-14T03:10:46.468Z,17.25
2018-12-14T03:11:46.341Z,17.24
2018-12-14T03:12:46.762Z,17.24
2018-12-14T03:13:46.606Z,17.25
2018-12-14T03:14:46.387Z,17.24
2018-12-14T03:15:46.600Z,17.22
2018-12-14T03:16:46.616Z,17.22
2018-12-14T03:17:46.427Z,17.21
2018-12-14T03:18:46.371Z,17.21
2018-12-14T03:19:46.431Z,17.23
2018-12-14T03:20:46.882Z,17.21
2018-12-14T03:21:46.756Z,17.2
2018-12-14T03:22:46.631Z,17.23
2018-12-14T03:23:46.372Z,17.21
2018-12-14T03:24:46.450Z,17.23
2018-12-14T03:25:46.252Z,17.21
2018-12-14T03:26:46.541Z,17.21
2018-12-14T03:27:46.281Z,17.21
2018-12-14T03:28:46.377Z,17.22
2018-12-14T03:29:46.685Z,17.19
2018-12-14T03:30:46.356Z,17.19
2018-12-14T03:31:46.729Z,17.22
2018-12-14T03:32:47.261Z,17.21
2018-12-14T03:33:46.609Z,17.21
2018-12-14T03:34:46.618Z,17.2
2018-12-14T03:35:46.735Z,17.19
2018-12-14T03:36:46.947Z,17.18
2018-12-14T03:37:46.354Z,17.2
2018-12-14T03:38:46.604Z,17.2
2018-12-14T03:39:46.400Z,17.2
2018-12-14T03:40:46.463Z,17.19
2018-12-14T03:41:46.576Z,17.2
2018-12-14T03:42:46.661Z,17.19
2018-12-14T03:43:46.791Z,17.19
2018-12-14T03:44:46.678Z,17.17
2018-12-14T03:45:46.352Z,17.17
2018-12-14T03:46:46.626Z,17.17
2018-12-14T03:47:46.492Z,17.17
2018-12-14T03:48:46.497Z,17.16
2018-12-14T03:49:46.747Z,17.17
2018-12-14T03:50:46.469Z,17.16
2018-12-14T03:51:46.758Z,17.17
2018-12-14T03:52:46.667Z,17.16
2018-12-14T03:53:46.679Z,17.16
2018-12-14T03:54:46.757Z,17.16
2018-12-14T03:55:46.789Z,17.17
2018-12-14T03:56:46.629Z,17.16
2018-12-14T03:57:46.395Z,17.18
2018-12-14T03:58:46.592Z,17.16
2018-12-14T03:59:46.438Z,17.15
2018-12-14T04:00:46.398Z,17.15
2018-12-14T04:01:46.718Z,17.17
2018-12-14T04:02:46.501Z,17.16
2018-12-14T04:03:46.592Z,17.16
2018-12-14T04:04:46.460Z,17.18
2018-12-14T04:05:46.539Z,17.14
2018-12-14T04:06:46.358Z,17.15
2018-12-14T04:07:46.437Z,17.14
2018-12-14T04:08:47.181Z,17.15
2018-12-14T04:09:46.411Z,17.17
2018-12-14T04:10:46.576Z,17.15
2018-12-14T04:11:46.716Z,17.14
2018-12-14T04:12:46.594Z,17.16
2018-12-14T04:13:46.427Z,17.16
2018-12-14T04:14:46.947Z,17.16
2018-12-14T04:15:46.358Z,17.14
2018-12-14T04:16:46.714Z,17.16
2018-12-14T04:17:46.648Z,17.14
2018-12-14T04:18:47.145Z,17.15
2018-12-14T04:19:46.549Z,17.14
2018-12-14T04:20:47.273Z,17.16
2018-12-14T04:21:46.421Z,17.14
2018-12-14T04:22:46.444Z,17.14
2018-12-14T04:23:46.592Z,17.15
2018-12-14T04:24:46.982Z,17.14
2018-12-14T04:25:46.462Z,17.13
2018-12-14T04:26:46.791Z,17.12
2018-12-14T04:27:46.353Z,17.15
2018-12-14T04:28:47.001Z,17.13
2018-12-14T04:29:46.419Z,17.13
2018-12-14T04:30:46.322Z,17.15
2018-12-14T04:31:46.675Z,17.11
2018-12-14T04:32:46.650Z,17.12
2018-12-14T04:33:46.500Z,17.13
2018-12-14T04:34:46.358Z,17.13
2018-12-14T04:35:46.520Z,17.12
2018-12-14T04:36:46.653Z,17.13
2018-12-14T04:37:46.501Z,17.12
2018-12-14T04:38:46.980Z,17.12
2018-12-14T04:39:46.367Z,17.12
2018-12-14T04:40:46.551Z,17.1
2018-12-14T04:41:46.330Z,17.11
2018-12-14T04:42:48.909Z,17.1
2018-12-14T04:43:46.578Z,17.1
2018-12-14T04:44:46.755Z,17.1
2018-12-14T04:45:46.924Z,17.1
2018-12-14T04:46:46.332Z,17.1
2018-12-14T04:47:46.477Z,17.09
2018-12-14T04:48:47.128Z,17.1
2018-12-14T04:49:46.386Z,17.11
2018-12-14T04:50:46.304Z,17.11
2018-12-14T04:51:46.682Z,17.11
2018-12-14T04:52:46.666Z,17.12
2018-12-14T04:53:46.358Z,17.14
2018-12-14T04:54:46.762Z,17.14
2018-12-14T04:55:46.324Z,17.15
2018-12-14T04:56:46.701Z,17.16
2018-12-14T04:57:46.316Z,17.16
2018-12-14T04:58:46.349Z,17.18
2018-12-14T04:59:46.581Z,17.18
2018-12-14T05:00:46.645Z,17.2
2018-12-14T05:01:46.640Z,17.21
2018-12-14T05:02:46.721Z,17.21
2018-12-14T05:03:46.357Z,17.23
2018-12-14T05:04:46.645Z,17.24
2018-12-14T05:05:46.444Z,17.25
2018-12-14T05:06:46.374Z,17.27
2018-12-14T05:07:46.454Z,17.28
2018-12-14T05:08:46.745Z,17.29
2018-12-14T05:09:46.404Z,17.3
2018-12-14T05:10:46.381Z,17.32
2018-12-14T05:11:46.600Z,17.32
2018-12-14T05:12:46.809Z,17.34
2018-12-14T05:13:46.437Z,17.35
2018-12-14T05:14:46.336Z,17.36
2018-12-14T05:15:46.380Z,17.38
2018-12-14T05:16:46.734Z,17.39
2018-12-14T05:17:46.672Z,17.4
2018-12-14T05:18:46.538Z,17.41
2018-12-14T05:19:46.598Z,17.42
2018-12-14T05:20:46.816Z,17.45
2018-12-14T05:21:46.894Z,17.46
2018-12-14T05:22:46.958Z,17.47
2018-12-14T05:23:46.342Z,17.49
2018-12-14T05:24:46.390Z,17.52
2018-12-14T05:25:46.278Z,17.53
2018-12-14T05:26:46.388Z,17.55
2018-12-14T05:27:47.417Z,17.56
2018-12-14T05:28:46.317Z,17.59
2018-12-14T05:29:46.868Z,17.6
2018-12-14T05:30:46.838Z,17.61
2018-12-14T05:31:46.830Z,17.62
2018-12-14T05:32:46.242Z,17.65
2018-12-14T05:33:46.303Z,17.65
2018-12-14T05:34:46.757Z,17.67
2018-12-14T05:35:46.413Z,17.68
2018-12-14T05:36:46.611Z,17.7
2018-12-14T05:37:46.265Z,17.71
2018-12-14T05:38:46.821Z,17.72
2018-12-14T05:39:46.828Z,17.74
2018-12-14T05:40:46.597Z,17.75
2018-12-14T05:41:46.841Z,17.76
2018-12-14T05:42:46.398Z,17.78
2018-12-14T05:43:46.611Z,17.78
2018-12-14T05:44:46.695Z,17.79
2018-12-14T05:45:46.308Z,17.8
2018-12-14T05:46:46.474Z,17.81
2018-12-14T05:47:46.351Z,17.83
2018-12-14T05:48:46.434Z,17.83
2018-12-14T05:49:46.255Z,17.85
2018-12-14T05:50:46.648Z,17.86
2018-12-14T05:51:46.686Z,17.86
2018-12-14T05:52:46.992Z,17.87
2018-12-14T05:53:46.700Z,17.88
2018-12-14T05:54:46.411Z,17.88
2018-12-14T05:55:46.396Z,17.89
2018-12-14T05:56:46.384Z,17.9
2018-12-14T05:57:46.703Z,17.91
2018-12-14T05:58:46.472Z,17.91
2018-12-14T05:59:46.353Z,17.91
2018-12-14T06:00:46.461Z,17.92
2018-12-14T06:01:46.349Z,17.92
2018-12-14T06:02:46.408Z,17.92
2018-12-14T06:03:46.389Z,17.93
2018-12-14T06:04:46.694Z,17.93
2018-12-14T06:05:46.479Z,17.93
2018-12-14T06:06:46.456Z,17.93
2018-12-14T06:07:46.393Z,17.94
2018-12-14T06:08:47.147Z,17.95
2018-12-14T06:09:46.214Z,17.94
2018-12-14T06:10:46.529Z,17.94
2018-12-14T06:11:46.380Z,17.95
2018-12-14T06:12:46.771Z,17.94
2018-12-14T06:13:46.375Z,17.94
2018-12-14T06:14:46.764Z,17.95
2018-12-14T06:15:46.279Z,17.95
2018-12-14T06:16:46.374Z,17.95
2018-12-14T06:17:46.272Z,17.95
2018-12-14T06:18:46.241Z,17.95
2018-12-14T06:19:46.439Z,17.95
2018-12-14T06:20:46.621Z,17.95
2018-12-14T06:21:46.793Z,17.95
2018-12-14T06:22:47.128Z,17.95
2018-12-14T06:23:46.404Z,17.94
2018-12-14T06:24:46.358Z,17.95
2018-12-14T06:25:46.553Z,17.95
2018-12-14T06:26:46.443Z,17.95
2018-12-14T06:27:46.174Z,17.95
2018-12-14T06:28:46.398Z,17.95
2018-12-14T06:29:46.280Z,17.95
2018-12-14T06:30:46.466Z,17.95
2018-12-14T06:31:46.304Z,17.95
2018-12-14T06:32:46.355Z,17.95
2018-12-14T06:33:46.547Z,17.94
2018-12-14T06:34:46.397Z,17.95
2018-12-14T06:35:46.631Z,17.94
2018-12-14T06:36:47.229Z,17.94
2018-12-14T06:37:46.417Z,17.93
2018-12-14T06:38:46.245Z,17.93
2018-12-14T06:39:46.470Z,17.94
2018-12-14T06:40:46.469Z,17.93
2018-12-14T06:41:46.276Z,17.93
2018-12-14T06:42:46.946Z,17.93
2018-12-14T06:43:46.363Z,17.93
2018-12-14T06:44:46.342Z,17.92
2018-12-14T06:45:46.244Z,17.92
2018-12-14T06:46:46.930Z,17.92
2018-12-14T06:47:46.261Z,17.91
2018-12-14T06:48:46.319Z,17.91
2018-12-14T06:49:46.673Z,17.92
2018-12-14T06:50:46.370Z,17.91
2018-12-14T06:51:46.419Z,17.9
2018-12-14T06:52:46.253Z,17.91
2018-12-14T06:53:47.094Z,17.92
2018-12-14T06:54:46.235Z,17.91
2018-12-14T06:55:46.708Z,17.91
2018-12-14T06:56:46.650Z,17.9
2018-12-14T06:57:46.372Z,17.91
2018-12-14T06:58:46.528Z,17.9
2018-12-14T06:59:46.294Z,17.9
2018-12-14T07:00:46.691Z,17.9
2018-12-14T07:01:46.574Z,17.9
2018-12-14T07:02:46.553Z,17.9
2018-12-14T07:03:46.288Z,17.9
2018-12-14T07:04:46.726Z,17.89
2018-12-14T07:05:46.917Z,17.89
2018-12-14T07:06:46.635Z,17.9
2018-12-14T07:07:46.720Z,17.89
2018-12-14T07:08:46.546Z,17.9
2018-12-14T07:09:46.636Z,17.89
2018-12-14T07:10:46.253Z,17.9
2018-12-14T07:11:46.880Z,17.89
2018-12-14T07:12:46.851Z,17.89
2018-12-14T07:13:46.585Z,17.89
2018-12-14T07:14:46.247Z,17.88
2018-12-14T07:15:46.511Z,17.88
2018-12-14T07:16:46.417Z,17.88
2018-12-14T07:17:46.297Z,17.89
2018-12-14T07:18:46.438Z,17.88
2018-12-14T07:19:46.911Z,17.88
2018-12-14T07:20:46.538Z,17.88
2018-12-14T07:21:46.660Z,17.88
2018-12-14T07:22:46.523Z,17.87
2018-12-14T07:23:46.241Z,17.88
2018-12-14T07:24:46.463Z,17.88
2018-12-14T07:25:46.362Z,17.88
2018-12-14T07:26:46.972Z,17.88
2018-12-14T07:27:46.314Z,17.88
2018-12-14T07:28:46.527Z,17.88
2018-12-14T07:29:46.636Z,17.88
2018-12-14T07:30:46.599Z,17.88
2018-12-14T07:31:46.599Z,17.88
2018-12-14T07:32:46.200Z,17.88
2018-12-14T07:33:46.212Z,17.87
2018-12-14T07:34:46.726Z,17.88
2018-12-14T07:35:46.642Z,17.88
2018-12-14T07:36:47.030Z,17.88
2018-12-14T07:37:46.658Z,17.88
2018-12-14T07:38:48.192Z,17.88
2018-12-14T07:39:46.500Z,17.88
2018-12-14T07:40:46.453Z,17.89
2018-12-14T07:41:46.262Z,17.89
2018-12-14T07:42:46.234Z,17.9
2018-12-14T07:43:47.074Z,17.89
2018-12-14T07:44:46.696Z,17.89
2018-12-14T07:45:46.680Z,17.89
2018-12-14T07:46:46.678Z,17.88
2018-12-14T07:47:46.374Z,17.9
2018-12-14T07:48:46.378Z,17.89
2018-12-14T07:49:46.719Z,17.9
2018-12-14T07:50:46.279Z,17.9
2018-12-14T07:51:46.618Z,17.9
2018-12-14T07:52:46.618Z,17.91
2018-12-14T07:53:46.468Z,17.91
2018-12-14T07:54:46.539Z,17.92
2018-12-14T07:55:46.499Z,17.91
2018-12-14T07:56:46.284Z,17.92
2018-12-14T07:57:46.421Z,17.92
2018-12-14T07:58:46.862Z,17.92
2018-12-14T07:59:46.507Z,17.93
2018-12-14T08:00:46.884Z,17.93
2018-12-14T08:01:46.283Z,17.93
2018-12-14T08:02:46.397Z,17.93
2018-12-14T08:03:46.280Z,17.94
2018-12-14T08:04:46.702Z,17.94
2018-12-14T08:05:46.234Z,17.94
2018-12-14T08:06:46.721Z,17.94
2018-12-14T08:07:46.679Z,17.95
2018-12-14T08:08:46.742Z,17.95
2018-12-14T08:09:46.694Z,17.96
2018-12-14T08:10:46.171Z,17.96
2018-12-14T08:11:46.394Z,17.97
2018-12-14T08:12:46.479Z,17.96
2018-12-14T08:13:47.499Z,17.97
2018-12-14T08:14:46.290Z,17.97
2018-12-14T08:15:46.389Z,17.98
2018-12-14T08:16:46.719Z,17.97
2018-12-14T08:17:46.301Z,17.98
2018-12-14T08:18:46.708Z,17.98
2018-12-14T08:19:46.327Z,17.99
2018-12-14T08:20:46.334Z,17.99
2018-12-14T08:21:46.257Z,17.99
2018-12-14T08:22:46.386Z,17.99
2018-12-14T08:23:46.375Z,18
2018-12-14T08:24:46.298Z,18
2018-12-14T08:25:46.380Z,18
2018-12-14T08:26:46.595Z,18
2018-12-14T08:27:46.338Z,18
2018-12-14T08:28:46.278Z,18
2018-12-14T08:29:46.695Z,18.01
2018-12-14T08:30:46.216Z,18.01
2018-12-14T08:31:46.311Z,18.01
2018-12-14T08:32:46.548Z,18.01
2018-12-14T08:33:46.330Z,18.01
2018-12-14T08:34:50.879Z,18.02
2018-12-14T08:35:46.285Z,18.01
2018-12-14T08:36:46.636Z,18.01
2018-12-14T08:37:46.210Z,18.02
2018-12-14T08:38:47.234Z,18.02
2018-12-14T08:39:46.769Z,18.01
2018-12-14T08:40:46.405Z,18.02
2018-12-14T08:41:46.450Z,18.03
2018-12-14T08:42:46.193Z,18.02
2018-12-14T08:43:46.272Z,18.02
2018-12-14T08:44:46.268Z,18.03
2018-12-14T08:45:46.894Z,18.02
2018-12-14T08:46:46.520Z,18.03
2018-12-14T08:47:46.631Z,18.02
2018-12-14T08:48:46.335Z,18.02
2018-12-14T08:49:46.631Z,18.02
2018-12-14T08:50:46.640Z,18.02
2018-12-14T08:51:46.290Z,18.03
2018-12-14T08:52:46.528Z,18.03
2018-12-14T08:53:46.486Z,18.02
2018-12-14T08:54:46.421Z,18.02
2018-12-14T08:55:47.027Z,18.02
2018-12-14T08:56:46.674Z,18.02
2018-12-14T08:57:46.673Z,18.02
2018-12-14T08:58:46.484Z,18.02
2018-12-14T08:59:46.730Z,18.02
2018-12-14T09:00:47.273Z,18.01
2018-12-14T09:01:46.282Z,18.02
2018-12-14T09:02:46.149Z,18.02
2018-12-14T09:03:46.279Z,18.01
2018-12-14T09:04:46.335Z,18.02
2018-12-14T09:05:46.434Z,18.02
2018-12-14T09:06:46.359Z,18.02
2018-12-14T09:07:46.863Z,18.02
2018-12-14T09:08:46.469Z,18.01
2018-12-14T09:09:47.484Z,18.02
2018-12-14T09:10:46.703Z,18.02
2018-12-14T09:11:46.166Z,18.02
2018-12-14T09:12:46.316Z,18.02
2018-12-14T09:13:47.945Z,18.02
2018-12-14T09:14:46.946Z,18.02
2018-12-14T09:15:46.802Z,18.02
2018-12-14T09:16:46.635Z,18.01
2018-12-14T09:17:46.416Z,18.02
2018-12-14T09:18:46.446Z,18.02
2018-12-14T09:19:46.177Z,18.02
2018-12-14T09:20:46.255Z,18.02
2018-12-14T09:21:46.658Z,18.01
2018-12-14T09:22:46.241Z,18.01
2018-12-14T09:23:46.333Z,18.02
2018-12-14T09:24:46.183Z,18.01
2018-12-14T09:25:46.678Z,18.02
2018-12-14T09:26:46.583Z,18.02
2018-12-14T09:27:46.248Z,18.02
2018-12-14T09:28:46.382Z,18.01
2018-12-14T09:29:47.052Z,18.01
2018-12-14T09:30:46.739Z,18.02
2018-12-14T09:31:46.324Z,18.02
2018-12-14T09:32:46.839Z,18.02
2018-12-14T09:33:46.192Z,18.01
2018-12-14T09:34:46.857Z,18.02
2018-12-14T09:35:46.481Z,18.01
2018-12-14T09:36:46.650Z,18.02
2018-12-14T09:37:46.673Z,18.01
2018-12-14T09:38:46.150Z,18.02
2018-12-14T09:39:46.713Z,18.02
2018-12-14T09:40:46.209Z,18.02
2018-12-14T09:41:46.860Z,18.02
2018-12-14T09:42:46.149Z,18.01
2018-12-14T09:43:46.196Z,18.02
2018-12-14T09:44:46.452Z,18.01
2018-12-14T09:45:46.445Z,18.01
2018-12-14T09:46:47.252Z,18.01
2018-12-14T09:47:47.266Z,18.01
2018-12-14T09:48:46.648Z,18.01
2018-12-14T09:49:46.571Z,18.01
2018-12-14T09:50:46.306Z,18.01
2018-12-14T09:51:46.214Z,18.01
2018-12-14T09:52:46.875Z,18.02
2018-12-14T09:53:46.336Z,18.01
2018-12-14T09:54:46.647Z,18.01
2018-12-14T09:55:46.254Z,18
2018-12-14T09:56:46.112Z,18
2018-12-14T09:57:46.212Z,18
2018-12-14T09:58:46.703Z,18.01
2018-12-14T09:59:46.188Z,18.01
2018-12-14T10:00:46.365Z,18.01
2018-12-14T10:01:46.338Z,18.01
2018-12-14T10:02:46.699Z,18.01
2018-12-14T10:03:46.237Z,18.02
2018-12-14T10:04:46.653Z,18.01
2018-12-14T10:05:46.251Z,18
2018-12-14T10:06:46.288Z,18.04
2018-12-14T10:07:47.105Z,18.03
2018-12-14T10:08:46.657Z,18.05
2018-12-14T10:09:46.624Z,18.05
2018-12-14T10:10:46.111Z,18.07
2018-12-14T10:11:46.316Z,18.07
2018-12-14T10:12:46.439Z,18.09
2018-12-14T10:13:46.321Z,18.07
2018-12-14T10:14:46.137Z,18.09
2018-12-14T10:15:46.326Z,18.09
2018-12-14T10:16:46.305Z,18.09
2018-12-14T10:17:46.664Z,18.08
2018-12-14T10:18:46.249Z,18.07
2018-12-14T10:19:46.305Z,18.07
2018-12-14T10:20:46.565Z,18.07
2018-12-14T10:21:46.985Z,18.06
2018-12-14T10:22:46.480Z,18.05
2018-12-14T10:23:46.753Z,18.05
2018-12-14T10:24:46.391Z,18.05
2018-12-14T10:25:46.222Z,18.05
2018-12-14T10:26:46.471Z,18.05
2018-12-14T10:27:46.235Z,18.05
2018-12-14T10:28:47.239Z,18.05
2018-12-14T10:29:46.556Z,18.05
2018-12-14T10:30:46.355Z,18.05
2018-12-14T10:31:46.469Z,18.05
2018-12-14T10:32:46.533Z,18.05
2018-12-14T10:33:46.345Z,18.05
2018-12-14T10:34:46.100Z,18.05
2018-12-14T10:35:46.803Z,18.06
2018-12-14T10:36:46.216Z,18.05
2018-12-14T10:37:46.589Z,18.04
2018-12-14T10:38:46.418Z,18.05
2018-12-14T10:39:46.390Z,18.04
2018-12-14T10:40:46.209Z,18.05
2018-12-14T10:41:46.103Z,18.04
2018-12-14T10:42:46.611Z,18.05
2018-12-14T10:43:46.451Z,18.04
2018-12-14T10:44:46.292Z,18.04
2018-12-14T10:45:46.148Z,18.04
2018-12-14T10:46:46.248Z,18.05
2018-12-14T10:47:46.208Z,18.05
2018-12-14T10:48:46.199Z,18.04
2018-12-14T10:49:46.874Z,18.04
2018-12-14T10:50:46.233Z,18.04
2018-12-14T10:51:46.354Z,18.05
2018-12-14T10:52:46.156Z,18.04
2018-12-14T10:53:46.288Z,18.04
2018-12-14T10:54:46.321Z,18.04
2018-12-14T10:55:46.287Z,18.04
2018-12-14T10:56:46.759Z,18.04
2018-12-14T10:57:46.294Z,18.04
2018-12-14T10:58:46.434Z,18.04
2018-12-14T10:59:46.205Z,18.05
2018-12-14T11:00:46.815Z,18.04
2018-12-14T11:01:46.428Z,18.04
2018-12-14T11:02:46.492Z,18.04
2018-12-14T11:03:46.330Z,18.04
2018-12-14T11:04:46.163Z,18.03
2018-12-14T11:05:47.218Z,18.03
2018-12-14T11:06:46.489Z,18.02
2018-12-14T11:07:46.370Z,18.04
2018-12-14T11:08:46.421Z,18.03
2018-12-14T11:09:46.819Z,18.03
2018-12-14T11:10:46.362Z,18.03
2018-12-14T11:11:46.305Z,18.03
2018-12-14T11:12:47.210Z,18.03
2018-12-14T11:13:46.661Z,18.03
2018-12-14T11:14:46.811Z,18.03
2018-12-14T11:15:46.729Z,18.03
2018-12-14T11:16:46.759Z,18.04
2018-12-14T11:17:46.230Z,18.04
2018-12-14T11:18:46.238Z,18.04
2018-12-14T11:19:46.348Z,18.03
2018-12-14T11:20:46.641Z,18.03
2018-12-14T11:21:46.800Z,18.03
2018-12-14T11:22:46.347Z,18.03
2018-12-14T11:23:46.509Z,18.03
2018-12-14T11:24:46.095Z,18.03
2018-12-14T11:25:46.614Z,18.04
2018-12-14T11:26:46.233Z,18.03
2018-12-14T11:27:46.885Z,18.03
2018-12-14T11:28:46.576Z,18.03
2018-12-14T11:29:46.626Z,18.04
2018-12-14T11:30:47.188Z,18.04
2018-12-14T11:31:46.135Z,18.04
2018-12-14T11:32:46.380Z,18.04
2018-12-14T11:33:46.374Z,18.04
2018-12-14T11:34:46.636Z,18.04
2018-12-14T11:35:46.588Z,18.03
2018-12-14T11:36:46.375Z,18.03
2018-12-14T11:37:46.394Z,18.03
2018-12-14T11:38:46.203Z,18.04
2018-12-14T11:39:46.271Z,18.03
2018-12-14T11:40:46.641Z,18.04
2018-12-14T11:41:46.164Z,18.04
2018-12-14T11:42:46.689Z,18.04
2018-12-14T11:43:46.284Z,18.04
2018-12-14T11:44:46.106Z,18.04
2018-12-14T11:45:46.119Z,18.04
2018-12-14T11:46:46.496Z,18.03
2018-12-14T11:47:46.401Z,18.04
2018-12-14T11:48:46.225Z,18.04
2018-12-14T11:49:46.093Z,18.04
2018-12-14T11:50:46.244Z,18.04
2018-12-14T11:51:46.354Z,18.04
2018-12-14T11:52:46.267Z,18.03
2018-12-14T11:53:46.086Z,18.03
2018-12-14T11:54:46.116Z,18.03
2018-12-14T11:55:46.115Z,18.03
2018-12-14T11:56:46.585Z,18.04
2018-12-14T11:57:46.603Z,18.03
2018-12-14T11:58:46.373Z,18.04
2018-12-14T11:59:46.499Z,18.04
2018-12-14T12:00:46.480Z,18.03
2018-12-14T12:01:46.114Z,18.04
2018-12-14T12:02:46.416Z,18.04
2018-12-14T12:03:46.531Z,18.03
2018-12-14T12:04:46.196Z,18.04
2018-12-14T12:05:46.392Z,18.03
2018-12-14T12:06:46.318Z,18.03
2018-12-14T12:07:46.630Z,18.05
2018-12-14T12:08:46.559Z,18.04
2018-12-14T12:09:46.699Z,18.05
2018-12-14T12:10:46.120Z,18.04
2018-12-14T12:11:46.477Z,18.05
2018-12-14T12:12:46.463Z,18.04
2018-12-14T12:13:46.213Z,18.05
2018-12-14T12:14:46.324Z,18.04
2018-12-14T12:15:46.368Z,18.05
2018-12-14T12:16:46.210Z,18.05
2018-12-14T12:17:49.328Z,18.04
2018-12-14T12:18:46.585Z,18.05
2018-12-14T12:19:46.378Z,18.04
2018-12-14T12:20:46.492Z,18.04
2018-12-14T12:21:46.380Z,18.04
2018-12-14T12:22:46.314Z,18.05
2018-12-14T12:23:46.209Z,18.05
2018-12-14T12:24:46.348Z,18.06
2018-12-14T12:25:46.469Z,18.04
2018-12-14T12:26:46.277Z,18.05
2018-12-14T12:27:46.088Z,18.04
2018-12-14T12:28:46.280Z,18.04
2018-12-14T12:29:46.705Z,18.05
2018-12-14T12:30:46.619Z,18.05
2018-12-14T12:31:46.058Z,18.05
2018-12-14T12:32:46.198Z,18.05
2018-12-14T12:33:46.028Z,18.05
2018-12-14T12:34:46.145Z,18.04
2018-12-14T12:35:46.348Z,18.05
2018-12-14T12:36:46.173Z,18.04
2018-12-14T12:37:46.254Z,18.03
2018-12-14T12:38:46.137Z,18.05
2018-12-14T12:39:46.294Z,18.05
2018-12-14T12:40:46.154Z,18.05
2018-12-14T12:41:46.213Z,18.06
2018-12-14T12:42:46.180Z,18.08
2018-12-14T12:43:46.413Z,18.07
2018-12-14T12:44:46.700Z,18.06
2018-12-14T12:45:46.262Z,18.06
2018-12-14T12:46:46.543Z,18.07
2018-12-14T12:47:46.110Z,18.07
2018-12-14T12:48:46.703Z,18.06
2018-12-14T12:49:46.545Z,18.06
2018-12-14T12:50:46.601Z,18.06
2018-12-14T12:51:46.624Z,18.06
2018-12-14T12:52:46.179Z,18.06
2018-12-14T12:53:46.301Z,18.08
2018-12-14T12:54:46.421Z,18.07
2018-12-14T12:55:46.317Z,18.06